Tiempo atmosférico en la estación meteorológica de Son Servera, Illes Balears (28 m.)



Fecha
DESCASC
Temp. máxima en grados centígrados (hora)
DESCASC
Temp. mínima en grados centígrados (hora)
DESCASC
Temp. media en grados centígrados
DESCASC
Racha de viento máxima en m/sg (hora)
DESCASC
Velocidad máxima media en intervalos de 10 minutos(hora)
DESCASC
Precipitaciones diarias en mm
DESCASC
Precipitaciones de 00:00 a 06:00 en mm
DESCASC
Precipitaciones de 06:00 a 12:00 en mm
DESCASC
Precipitaciones de 12:00 a 18:00 en mm
DESCASC
Precipitaciones de 18:00 a 24:00 en mm
DESCASC
13-06-2019 24.1 (15:20) 13.6 (02:50) 18.9 11.39 (18:30) 6.39 (15:40) 0 0 0 0 0
12-06-2019 21.8 (15:40) 15.6 (23:59) 18.7 8.33 (00:20) 5 (00:10) 0 0 0 0 0
11-06-2019 23.4 (16:40) 14.4 (06:00) 18.9 9.44 (23:00) 5.56 (23:00) 0 0 0 0 0
10-06-2019 26.1 (14:20) 17.8 (01:50) 21.9 11.67 (08:40) 6.94 (10:00) 0 0 0 0 0
09-06-2019 26.7 (17:50) 17.8 (00:00) 22.3 7.5 (15:10) 4.44 (15:00) 0 0 0 0 0
08-06-2019 24.1 (16:10) 17 (00:00) 20.6 11.94 (12:10) 5.83 (11:40) 0 0 0 0 0
07-06-2019 27.2 (14:00) 16.1 (00:00) 21.7 10 (16:10) 5.83 (15:50) 0 0 0 0 0
06-06-2019 22.6 (16:40) 15.1 (00:00) 18.9 6.67 (16:20) 4.72 (16:20) 0 0 0 0 0
05-06-2019 30.1 (15:20) 15.1 (00:00) 22.6 11.94 (18:10) 7.78 (11:40) 0 0 0 0 0
04-06-2019 25.3 (13:10) 12.9 (00:00) 19.1 5.56 (14:30) 3.89 (17:30) 0 0 0 0 0
03-06-2019 24.5 (08:30) 12.3 (00:00) 18.4 7.78 (15:30) 4.17 (13:40) 0 0 0 0 0
02-06-2019 23.2 (15:10) 12.3 (00:00) 17.8 6.39 (13:30) 3.89 (13:20) 0 0 0 0 0
01-06-2019 24.1 (08:40) 11.9 (00:00) 18 6.11 (12:50) 4.17 (12:50) 0 0 0 0 0
31-05-2019 25.9 (14:20) 11.8 (00:00) 18.8 8.89 (15:10) 6.11 (15:30) 0 0 0 0 0
30-05-2019 24.4 (15:00) 11.8 (00:00) 18.1 10 (14:00) 6.39 (13:10) -- 0 -- 0 0
29-05-2019 21.5 (14:40) 13.9 (00:00) 17.7 10.28 (13:10) 5.28 (12:50) 0 0 0 0 0
28-05-2019 24.5 (11:10) 13.4 (00:00) 18.9 10 (19:00) 6.11 (19:00) 0.8 0 0 0.8 0
27-05-2019 25.4 (12:10) 15 (00:00) 20.2 8.33 (18:50) 5 (12:40) 0 0 0 0 0
26-05-2019 23.3 (16:10) 15 (00:00) 19.1 13.89 (13:40) 7.78 (12:20) 0 0 0 0 0
25-05-2019 19.9 (13:20) 15 (00:00) 17.4 10 (16:50) 6.39 (16:40) 0 0 0 0 0
24-05-2019 23.1 (09:20) 12.3 (00:00) 17.7 5.28 (16:00) 3.33 (16:00) 1.2 0 0 1 0.2
23-05-2019 25 (14:50) 10 (00:00) 17.5 10 (16:10) 6.67 (16:00) 0 0 0 0 0
22-05-2019 23.6 (12:00) 11.4 (00:00) 17.5 6.11 (14:30) 4.44 (14:10) 0 0 0 0 0
21-05-2019 21.3 (14:00) 9.4 (06:10) 15.3 6.39 (15:10) 3.89 (13:40) 0 0 0 0 0
20-05-2019 20.7 (09:50) 9.4 (06:30) 15.1 7.22 (15:40) 4.44 (18:10) 0 0 0 0 0
19-05-2019 20 (11:30) 8.9 (00:00) 14.4 9.17 (19:00) 4.72 (19:00) 0.2 0 0 0.2 0
18-05-2019 19.6 (18:20) 13.1 (00:00) 16.4 6.94 (16:40) 3.89 (16:50) 1 0 0 1 0
17-05-2019 23.4 (12:50) 13.5 (00:00) 18.4 18.89 (15:10) 9.44 (15:20) 0 0 0 0 0

Gráficas

Temp. máximas Temp. mínimas Temp. medias Precipitaciones Rachas de viento máximas Velocidades máximas media en intervalos de 10 minutos

Datos horarios

Fecha y hora oficial Temperatura (ºC) Velocidad del viento (km/h) Dirección del viento Racha (km/h) Dirección de racha Precipitación (mm) Presión (hPa) Tendencia (hPa) Humedad (%)
2019-06-15 23:00:00 19.8 12 Nordeste 25 Nordeste 0 -- -- 85
2019-06-15 22:00:00 20.1 14 Nordeste 23 Nordeste 0 -- -- 85
2019-06-15 21:00:00 21 11 Nordeste 22 Nordeste 0 -- -- 80
2019-06-15 20:00:00 23.2 10 Nordeste 21 Nordeste 0 -- -- 70
2019-06-15 19:00:00 24.2 13 Nordeste 24 Nordeste 0 -- -- 65
2019-06-15 18:00:00 25.1 14 Nordeste 22 Este 0 -- -- 63
2019-06-15 17:00:00 25.5 13 Sudeste 23 Sudeste 0 -- -- 62
2019-06-15 16:00:00 24.9 14 Sudeste 26 Sur 0 -- -- 63
2019-06-15 15:00:00 24.5 17 Sudeste 26 Sur 0 -- -- 63
2019-06-15 14:00:00 25.2 10 Sur 21 Sudeste 0 -- -- 62
2019-06-15 13:00:00 26.1 10 Sur 24 Sur 0 -- -- 57
2019-06-15 12:00:00 26.7 8 Sur 26 Noroeste 0 -- -- 59
2019-06-15 11:00:00 26.1 14 Oeste 30 Noroeste 0 -- -- 56
2019-06-15 10:00:00 23.8 20 Oeste 32 Oeste 0 -- -- 63
2019-06-15 09:00:00 22.3 15 Oeste 29 Oeste 0 -- -- 70
2019-06-15 08:00:00 21.6 8 Oeste 35 Sudoeste 0 -- -- 71
2019-06-15 07:00:00 19.3 7 Oeste 13 Sudoeste 0 -- -- 82
2019-06-15 06:00:00 18.3 6 Sudoeste 15 Oeste 0 -- -- 87
2019-06-15 05:00:00 18.7 4 Sudoeste 15 Oeste 0 -- -- 83
2019-06-15 04:00:00 18.4 4 Sudoeste 9 Sudoeste 0 -- -- 84
2019-06-15 03:00:00 18.6 0 Calma 12 Noroeste 0 -- -- 84
2019-06-15 02:00:00 19.1 4 Norte 19 Oeste 0 -- -- 84
2019-06-15 01:00:00 19.8 9 Noroeste 30 Oeste 0 -- -- 83
2019-06-15 00:00:00 20.1 8 Sudoeste 19 Noroeste 0 -- -- 81
2019-06-14 23:00:00 20.5 4 Sudoeste 30 Sudoeste 0 -- -- 82
2019-06-14 22:00:00 21.5 10 Oeste 26 Oeste 0 -- -- 77
2019-06-14 21:00:00 23.4 13 Oeste 28 Oeste 0 -- -- 64
2019-06-14 20:00:00 25.6 14 Oeste 36 Oeste 0 -- -- 50
2019-06-14 19:00:00 26.1 26 Oeste 42 Oeste 0 -- -- 43
2019-06-14 18:00:00 26.8 21 Oeste 42 Oeste 0 -- -- 43
2019-06-14 17:00:00 27.1 19 Oeste 42 Oeste 0 -- -- 46
2019-06-14 16:00:00 27.9 19 Oeste 40 Oeste 0 -- -- 48
2019-06-14 15:00:00 27 19 Oeste 41 Oeste 0 -- -- 53
2019-06-14 14:00:00 26.2 27 Noroeste 44 Noroeste 0 -- -- 57
2019-06-14 13:00:00 24.2 24 Oeste 45 Oeste 0 -- -- 64
2019-06-14 12:00:00 24.6 29 Oeste 48 Noroeste 0 -- -- 65
2019-06-14 11:00:00 23.7 22 Oeste 37 Sudoeste 0 -- -- 70
2019-06-14 10:00:00 23 21 Oeste 36 Oeste 0 -- -- 72
2019-06-14 09:00:00 23.2 13 Oeste 31 Noroeste 0 -- -- 76
2019-06-14 08:00:00 21.9 6 Norte 18 Noroeste 0 -- -- 83
2019-06-14 07:00:00 20.7 8 Noroeste 16 Noroeste 0 -- -- 88
2019-06-14 06:00:00 20.8 4 Este 17 Este 0 -- -- 88
2019-06-14 05:00:00 20.8 8 Este 22 Este 0 -- -- 85
2019-06-14 04:00:00 20.7 8 Este 21 Este 0 -- -- 83
2019-06-14 03:00:00 21.1 12 Este 31 Este 0 -- -- 80
2019-06-14 02:00:00 21.1 15 Nordeste 32 Nordeste 0 -- -- 77
2019-06-14 01:00:00 21 12 Nordeste 24 Este 0 -- -- 75
2019-06-14 00:00:00 20.7 10 Nordeste 31 Sudeste 0 -- -- 81
2019-06-13 23:00:00 20.9 12 Nordeste 30 Nordeste 0 -- -- 81
2019-06-13 22:00:00 20.6 16 Este 34 Este 0 -- -- 83
2019-06-13 21:00:00 20.7 16 Este 34 Este 0 -- -- 81
2019-06-13 20:00:00 21 19 Este 39 Este 0 -- -- 78
2019-06-13 19:00:00 21.9 16 Este 41 Este 0 -- -- 72
2019-06-13 18:00:00 23.2 17 Este 32 Sudeste 0 -- -- 65
2019-06-13 17:00:00 23.7 17 Este 36 Este 0 -- -- 61
2019-06-13 16:00:00 23.6 21 Este 37 Este 0 -- -- 55
2019-06-13 15:00:00 23.6 19 Este 35 Sudeste 0 -- -- 55
2019-06-13 14:00:00 23.7 17 Este 31 Sudeste 0 -- -- 59
2019-06-13 13:00:00 22.9 14 Este 37 Este 0 -- -- 56
2019-06-13 12:00:00 22.3 18 Este 35 Este 0 -- -- 52
2019-06-13 11:00:00 22.2 16 Este 32 Este 0 -- -- 60
2019-06-13 10:00:00 20.2 18 Este 34 Este 0 -- -- 68
2019-06-13 09:00:00 20.9 15 Este 35 Nordeste 0 -- -- 66
2019-06-13 08:00:00 19.6 13 Este 23 Este 0 -- -- 78
2019-06-13 07:00:00 15.5 5 Noroeste 9 Noroeste 0 -- -- 93
2019-06-13 06:00:00 13.9 6 Noroeste 10 Noroeste 0 -- -- 93
2019-06-13 05:00:00 14 8 Noroeste 10 Noroeste 0 -- -- 92
2019-06-13 04:00:00 13.9 6 Noroeste 10 Noroeste 0 -- -- 92
2019-06-13 03:00:00 13.6 9 Noroeste 12 Noroeste 0 -- -- 91
2019-06-13 02:00:00 14.1 7 Noroeste 9 Noroeste 0 -- -- 89
2019-06-13 01:00:00 14.7 5 Noroeste 8 Noroeste 0 -- -- 87
2019-06-13 00:00:00 15.6 3 Norte 5 Noroeste 0 -- -- 85
2019-06-12 23:00:00 16.9 2 Este 10 Este 0 -- -- 80
2019-06-12 22:00:00 18.1 7 Sudeste 15 Sudeste 0 -- -- 76
2019-06-12 21:00:00 18.6 8 Sudeste 20 Sudeste 0 -- -- 73
2019-06-12 20:00:00 19.5 10 Sudeste 21 Sudeste 0 -- -- 69
2019-06-12 19:00:00 20.2 14 Sudeste 24 Sudeste 0 -- -- 64
2019-06-12 18:00:00 20.7 13 Sudeste 24 Sudeste 0 -- -- 62
2019-06-12 17:00:00 20.9 15 Sudeste 25 Sudeste 0 -- -- 61
2019-06-12 16:00:00 21.4 15 Sudeste 30 Este 0 -- -- 57
2019-06-12 15:00:00 21.7 13 Este 27 Este 0 -- -- 54
2019-06-12 14:00:00 21.3 12 Este 24 Este 0 -- -- 56
2019-06-12 13:00:00 20.6 13 Este 26 Sudeste 0 -- -- 60
2019-06-12 12:00:00 20.7 11 Nordeste 21 Nordeste 0 -- -- 56
2019-06-12 11:00:00 18.8 7 Este 18 Sudeste 0 -- -- 65
2019-06-12 10:00:00 18.6 10 Este 21 Sudeste 0 -- -- 68
2019-06-12 09:00:00 19.4 10 Este 20 Este 0 -- -- 65
2019-06-12 08:00:00 17.5 10 Nordeste 19 Nordeste 0 -- -- 75
2019-06-12 07:00:00 16.8 10 Este 16 Nordeste 0 -- -- 75
2019-06-12 06:00:00 16.9 11 Este 26 Nordeste 0 -- -- 74
2019-06-12 05:00:00 15.8 6 Norte 12 Norte 0 -- -- 78
2019-06-12 04:00:00 15.9 5 Norte 17 Nordeste 0 -- -- 79
2019-06-12 03:00:00 16.3 12 Nordeste 27 Nordeste 0 -- -- 77
2019-06-12 02:00:00 16.3 12 Nordeste 28 Nordeste 0 -- -- 80
2019-06-12 01:00:00 16 16 Norte 30 Norte 0 -- -- 84
2019-06-12 00:00:00 16.2 17 Norte 33 Nordeste 0 -- -- 86
2019-06-11 23:00:00 17.5 20 Nordeste 34 Norte 0 -- -- 83
2019-06-11 22:00:00 18.5 17 Nordeste 28 Nordeste 0 -- -- 83
2019-06-11 21:00:00 20.4 7 Nordeste 19 Nordeste 0 -- -- 78
2019-06-11 20:00:00 20.8 6 Sudeste 19 Sudeste 0 -- -- 77
2019-06-11 19:00:00 21.9 10 Sur 21 Sudeste 0 -- -- 73
2019-06-11 18:00:00 22.3 12 Sudeste 22 Sudeste 0 -- -- 70
2019-06-11 17:00:00 22.6 13 Sudeste 23 Sudeste 0 -- -- 68
2019-06-11 16:00:00 22.6 14 Sudeste 26 Sur 0 -- -- 68
2019-06-11 15:00:00 22.6 12 Sur 25 Sudeste 0 -- -- 68
2019-06-11 14:00:00 21.9 14 Sudeste 27 Sudeste 0 -- -- 71
2019-06-11 13:00:00 22.1 11 Sur 22 Sudeste 0 -- -- 69
2019-06-11 12:00:00 21.3 11 Sudeste 20 Sudeste 0 -- -- 72
2019-06-11 11:00:00 21 8 Sudeste 18 Sudeste 0 -- -- 72
2019-06-11 10:00:00 20.4 11 Sudeste 19 Sudeste 0 -- -- 72
2019-06-11 09:00:00 20.8 10 Sudeste 18 Sudeste 0 -- -- 70
2019-06-11 08:00:00 20.1 0 Calma 7 Noroeste 0 -- -- 79
2019-06-11 07:00:00 15.3 5 Noroeste 10 Noroeste 0 -- -- 92
2019-06-11 06:00:00 14.4 8 Noroeste 10 Noroeste 0 -- -- 92
2019-06-11 05:00:00 15.2 6 Noroeste 10 Noroeste 0 -- -- 91
2019-06-11 04:00:00 15.1 6 Noroeste 9 Noroeste 0 -- -- 90
2019-06-11 03:00:00 15.5 6 Noroeste 9 Noroeste 0 -- -- 88
2019-06-11 02:00:00 15.8 6 Noroeste 8 Noroeste 0 -- -- 85
2019-06-11 01:00:00 16.3 6 Noroeste 8 Noroeste 0 -- -- 82
2019-06-11 00:00:00 18.2 0 Calma 12 Sudeste 0 -- -- 79
2019-06-10 23:00:00 19.5 4 Sudeste 9 Sudeste 0 -- -- 78
2019-06-10 22:00:00 19.3 2 Este 19 Nordeste 0 -- -- 66
2019-06-10 21:00:00 20.7 10 Nordeste 20 Nordeste 0 -- -- 60
2019-06-10 20:00:00 21.9 8 Nordeste 21 Este 0 -- -- 56
2019-06-10 19:00:00 24 10 Nordeste 30 Nordeste 0 -- -- 49
2019-06-10 18:00:00 24.2 18 Nordeste 34 Nordeste 0 -- -- 50
2019-06-10 17:00:00 25.5 17 Nordeste 32 Nordeste 0 -- -- 44
2019-06-10 16:00:00 25.9 17 Nordeste 32 Nordeste 0 -- -- 43
2019-06-10 15:00:00 25.8 19 Nordeste 34 Nordeste 0 -- -- 43
2019-06-10 14:00:00 25.6 21 Nordeste 38 Nordeste 0 -- -- 46
2019-06-10 13:00:00 25 20 Nordeste 33 Nordeste 0 -- -- 52
2019-06-10 12:00:00 23.5 17 Norte 37 Nordeste 0 -- -- 60
2019-06-10 11:00:00 22.8 21 Nordeste 36 Norte 0 -- -- 66
2019-06-10 10:00:00 21 25 Norte 41 Norte 0 -- -- 74
2019-06-10 09:00:00 21.8 19 Norte 42 Nordeste 0 -- -- 69
2019-06-10 08:00:00 20.7 19 Norte 36 Norte 0 -- -- 72
2019-06-10 07:00:00 19.7 19 Norte 35 Norte 0 -- -- 77
2019-06-10 06:00:00 18.4 11 Norte 19 Norte 0 -- -- 88
2019-06-10 05:00:00 18.1 8 Noroeste 17 Noroeste 0 -- -- 89
2019-06-10 04:00:00 18.3 3 Sur 17 Norte 0 -- -- 89
2019-06-10 03:00:00 18.3 7 Noroeste 12 Norte 0 -- -- 89
2019-06-10 02:00:00 18 6 Norte 11 Oeste 0 -- -- 90
2019-06-10 01:00:00 18.3 6 Noroeste 9 Noroeste 0 -- -- 89
2019-06-10 00:00:00 18.9 4 Noroeste 8 Noroeste 0 -- -- 88
2019-06-09 23:00:00 19.7 4 Oeste 15 Sudoeste 0 -- -- 86
2019-06-09 22:00:00 20.4 11 Sudoeste 18 Sudoeste 0 -- -- 84
2019-06-09 21:00:00 21.8 5 Norte 16 Nordeste 0 -- -- 70
2019-06-09 20:00:00 22.8 11 Nordeste 18 Nordeste 0 -- -- 68
2019-06-09 19:00:00 25.7 6 Sudoeste 19 Nordeste 0 -- -- 58
2019-06-09 18:00:00 26.6 9 Nordeste 15 Sudoeste 0 -- -- 57
2019-06-09 17:00:00 25.8 9 Sudoeste 19 Sudeste 0 -- -- 62
2019-06-09 16:00:00 23.7 12 Sudeste 27 Sudeste 0 -- -- 72
2019-06-09 15:00:00 24 16 Sudeste 26 Sudeste 0 -- -- 68
2019-06-09 14:00:00 23.7 14 Sudeste 20 Sudeste 0 -- -- 75
2019-06-09 13:00:00 24.2 11 Sudeste 19 Sudeste 0 -- -- 73
2019-06-09 12:00:00 24.3 10 Sudeste 16 Sudeste 0 -- -- 73
2019-06-09 11:00:00 24.3 8 Sur 16 Sudeste 0 -- -- 73
2019-06-09 10:00:00 23.4 8 Sudeste 13 Este 0 -- -- 76
2019-06-09 09:00:00 22 6 Sudeste 17 Nordeste 0 -- -- 78
2019-06-09 08:00:00 20.8 10 Este 19 Este 0 -- -- 80
2019-06-09 07:00:00 19.8 4 Nordeste 23 Sudeste 0 -- -- 81
2019-06-09 06:00:00 19.4 4 Sudeste 14 Este 0 -- -- 77
2019-06-09 05:00:00 18.3 4 Nordeste 13 Este 0 -- -- 78
2019-06-09 04:00:00 19.3 3 Nordeste 12 Nordeste 0 -- -- 70
2019-06-09 03:00:00 18.8 5 Norte 23 Nordeste 0 -- -- 70
2019-06-09 02:00:00 19.1 11 Nordeste 19 Nordeste 0 -- -- 69
2019-06-09 01:00:00 18.8 12 Norte 22 Nordeste 0 -- -- 73
2019-06-09 00:00:00 19.2 13 Nordeste 20 Nordeste 0 -- -- 70
2019-06-08 23:00:00 18.7 10 Norte 17 Norte 0 -- -- 74
2019-06-08 22:00:00 18.8 7 Noroeste 19 Norte 0 -- -- 73
2019-06-08 21:00:00 19.8 11 Norte 17 Norte 0 -- -- 67
2019-06-08 20:00:00 21.3 10 Norte 25 Nordeste 0 -- -- 58
2019-06-08 19:00:00 22.7 13 Nordeste 24 Nordeste 0 -- -- 49
2019-06-08 18:00:00 23.3 14 Nordeste 30 Norte 0 -- -- 47
2019-06-08 17:00:00 23.1 19 Nordeste 31 Nordeste 0 -- -- 47
2019-06-08 16:00:00 23.5 19 Nordeste 33 Nordeste 0 -- -- 46
2019-06-08 15:00:00 23.5 20 Nordeste 35 Nordeste 0 -- -- 42
2019-06-08 14:00:00 23.7 15 Nordeste 32 Nordeste 0 -- -- 46
2019-06-08 13:00:00 22.2 15 Nordeste 43 Nordeste 0 -- -- 50
2019-06-08 12:00:00 22.9 15 Este 37 Sudeste 0 -- -- 51
2019-06-08 11:00:00 21.6 16 Nordeste 31 Este 0 -- -- 52
2019-06-08 10:00:00 20.4 21 Nordeste 32 Nordeste 0 -- -- 56
2019-06-08 09:00:00 19.8 14 Nordeste 30 Este 0 -- -- 62
2019-06-08 08:00:00 19.3 13 Nordeste 34 Nordeste 0 -- -- 70
2019-06-08 07:00:00 18.9 10 Nordeste 26 Nordeste 0 -- -- 77
2019-06-08 06:00:00 18.7 13 Nordeste 26 Norte 0 -- -- 73
2019-06-08 05:00:00 18.6 14 Norte 28 Norte 0 -- -- 80
2019-06-08 04:00:00 18.6 6 Noroeste 26 Norte 0 -- -- 86
2019-06-08 03:00:00 19.1 13 Norte 21 Norte 0 -- -- 90
2019-06-08 02:00:00 17.5 6 Noroeste 17 Norte 0 -- -- 87
2019-06-08 01:00:00 17 6 Noroeste 10 Oeste 0 -- -- 89
2019-06-08 00:00:00 17.8 5 Noroeste 9 Noroeste 0 -- -- 87
2019-06-07 23:00:00 19 4 Noroeste 11 Norte 0 -- -- 83
2019-06-07 22:00:00 19.9 0 Calma 11 Norte 0 -- -- 73
2019-06-07 21:00:00 21 8 Norte 20 Nordeste 0 -- -- 68
2019-06-07 20:00:00 22.6 11 Nordeste 28 Norte 0 -- -- 56
2019-06-07 19:00:00 23.5 16 Norte 30 Nordeste 0 -- -- 61
2019-06-07 18:00:00 24.4 15 Norte 30 Nordeste 0 -- -- 60
2019-06-07 17:00:00 25.2 18 Nordeste 36 Nordeste 0 -- -- 58
2019-06-07 16:00:00 26 17 Nordeste 32 Este 0 -- -- 54
2019-06-07 15:00:00 25.8 19 Nordeste 27 Nordeste 0 -- -- 56
2019-06-07 14:00:00 27.2 10 Este 22 Este 0 -- -- 56
2019-06-07 13:00:00 23.4 14 Este 23 Sudeste 0 -- -- 74
2019-06-07 12:00:00 22.8 14 Sudeste 22 Este 0 -- -- 77
2019-06-07 11:00:00 22 13 Sudeste 19 Sudeste 0 -- -- 78
2019-06-07 10:00:00 21.9 9 Sur 23 Sudeste 0 -- -- 79
2019-06-07 09:00:00 21.5 5 Sur 9 Sur 0 -- -- 77
2019-06-07 08:00:00 19.8 4 Sur 9 Sudeste 0 -- -- 89
2019-06-07 07:00:00 17.1 3 Noroeste 12 Noroeste 0 -- -- 95
2019-06-07 06:00:00 16.2 6 Noroeste 11 Noroeste 0 -- -- 95
2019-06-07 05:00:00 16.9 0 Calma 0 Calma 0 -- -- 94
2019-06-07 04:00:00 17.3 0 Calma 4 Sur 0 -- -- 94
2019-06-07 03:00:00 18 3 Sur 9 Sur 0 -- -- 92
2019-06-07 02:00:00 19 4 Sur 12 Sudeste 0 -- -- 91
2019-06-07 01:00:00 19.4 6 Sudeste 17 Sudeste 0 -- -- 90
2019-06-07 00:00:00 19.5 9 Sudeste 16 Sudeste 0 -- -- 89
2019-06-06 23:00:00 19.7 9 Sudeste 20 Sudeste 0 -- -- 88
2019-06-06 22:00:00 19.7 9 Sudeste 19 Sudeste 0 -- -- 88
2019-06-06 21:00:00 20 8 Sudeste 17 Sudeste 0 -- -- 84
2019-06-06 20:00:00 20.2 10 Sudeste 22 Sudeste 0 -- -- 82
2019-06-06 19:00:00 21.1 12 Sudeste 22 Sudeste 0 -- -- 77
2019-06-06 18:00:00 21.4 12 Sudeste 23 Sudeste 0 -- -- 77
2019-06-06 17:00:00 21.8 12 Sudeste 24 Sudeste 0 -- -- 75
2019-06-06 16:00:00 21.7 13 Sudeste 23 Sudeste 0 -- -- 75
2019-06-06 15:00:00 22.1 12 Sudeste 24 Sudeste 0 -- -- 73
2019-06-06 14:00:00 21.9 11 Sudeste 23 Sur 0 -- -- 71
2019-06-06 13:00:00 21.4 14 Sudeste 23 Sudeste 0 -- -- 71
2019-06-06 12:00:00 21.1 13 Sudeste 23 Sudeste 0 -- -- 70
2019-06-06 11:00:00 20.5 12 Sudeste 22 Este 0 -- -- 72
2019-06-06 10:00:00 20.6 13 Este 22 Este 0 -- -- 69
2019-06-06 09:00:00 20.1 11 Sudeste 19 Sudeste 0 -- -- 67
2019-06-06 08:00:00 19.4 8 Este 13 Este 0 -- -- 70
2019-06-06 07:00:00 15.6 6 Noroeste 8 Noroeste 0 -- -- 86
2019-06-06 06:00:00 15.5 4 Noroeste 8 Sudeste 0 -- -- 84
2019-06-06 05:00:00 16.8 6 Nordeste 14 Nordeste 0 -- -- 80
2019-06-06 04:00:00 17.1 3 Nordeste 14 Nordeste 0 -- -- 82
2019-06-06 03:00:00 18 3 Norte 19 Nordeste 0 -- -- 73
2019-06-06 02:00:00 17.5 3 Noroeste 9 Noroeste 0 -- -- 58
2019-06-06 01:00:00 17.1 0 Calma 13 Noroeste 0 -- -- 62
2019-06-06 00:00:00 17 6 Noroeste 12 Noroeste 0 -- -- 64
2019-06-05 23:00:00 18.3 6 Noroeste 10 Noroeste 0 -- -- 62
2019-06-05 22:00:00 19.8 7 Noroeste 12 Norte 0 -- -- 59
2019-06-05 21:00:00 22.5 7 Noroeste 22 Oeste 0 -- -- 51
2019-06-05 20:00:00 24.9 12 Oeste 29 Oeste 0 -- -- 33
2019-06-05 19:00:00 25.4 18 Oeste 43 Oeste 0 -- -- 31
2019-06-05 18:00:00 27.8 24 Oeste 42 Sudoeste 0 -- -- 27
2019-06-05 17:00:00 28.1 15 Sudoeste 39 Sudoeste 0 -- -- 34
2019-06-05 16:00:00 30 19 Oeste 42 Oeste 0 -- -- 40
2019-06-05 15:00:00 29.5 18 Oeste 39 Oeste 0 -- -- 44
2019-06-05 14:00:00 28.5 22 Oeste 41 Oeste 0 -- -- 49
2019-06-05 13:00:00 26.4 17 Sudoeste 35 Sur 0 -- -- 56
2019-06-05 12:00:00 23.3 21 Sur 40 Sur 0 -- -- 72
2019-06-05 11:00:00 21.9 22 Sur 37 Sudoeste 0 -- -- 76
2019-06-05 10:00:00 21.9 13 Sur 25 Sur 0 -- -- 75
2019-06-05 09:00:00 21 9 Sur 19 Sur 0 -- -- 81
2019-06-05 08:00:00 18.2 0 Calma 6 Oeste 0 -- -- 95
2019-06-05 07:00:00 15.8 4 Noroeste 8 Noroeste 0 -- -- 96
2019-06-05 06:00:00 16.5 5 Noroeste 7 Oeste 0 -- -- 96
2019-06-05 05:00:00 16.8 0 Calma 8 Noroeste 0 -- -- 96
2019-06-05 04:00:00 16 5 Noroeste 8 Noroeste 0 -- -- 95
2019-06-05 03:00:00 15.3 7 Noroeste 10 Noroeste 0 -- -- 95
2019-06-05 02:00:00 15.7 5 Noroeste 9 Noroeste 0 -- -- 94
2019-06-05 01:00:00 16.4 4 Noroeste 6 Noroeste 0 -- -- 93
2019-06-05 00:00:00 16.2 0 Calma 5 Noroeste 0 -- -- 91
2019-06-04 23:00:00 16.7 4 Noroeste 6 Noroeste 0 -- -- 88
2019-06-04 22:00:00 18.6 0 Calma 7 Sur 0 -- -- 85
2019-06-04 21:00:00 20.9 4 Sur 12 Sudeste 0 -- -- 79
2019-06-04 20:00:00 21.9 8 Sudeste 15 Este 0 -- -- 73
2019-06-04 19:00:00 23.1 8 Sudeste 17 Sudeste 0 -- -- 66
2019-06-04 18:00:00 23.4 11 Sudeste 19 Sudeste 0 -- -- 66
2019-06-04 17:00:00 23.9 11 Sudeste 20 Sudeste 0 -- -- 60
2019-06-04 16:00:00 24.2 12 Sudeste 20 Sudeste 0 -- -- 56
2019-06-04 15:00:00 24.8 10 Sudeste 20 Sudeste 0 -- -- 53
2019-06-04 14:00:00 24.9 10 Sudeste 18 Sudeste 0 -- -- 53
2019-06-04 13:00:00 25.2 9 Sudeste 18 Sudeste 0 -- -- 53
2019-06-04 12:00:00 24.2 9 Sudeste 19 Sudeste 0 -- -- 59
2019-06-04 11:00:00 23.3 7 Sur 15 Sur 0 -- -- 61
2019-06-04 10:00:00 22.5 7 Sudeste 13 Sudeste 0 -- -- 68
2019-06-04 09:00:00 22.8 3 Sudeste 7 Sur 0 -- -- 69
2019-06-04 08:00:00 20.8 4 Noroeste 10 Noroeste 0 -- -- 68
2019-06-04 07:00:00 13.9 8 Noroeste 11 Noroeste 0 -- -- 90
2019-06-04 06:00:00 13.3 8 Noroeste 12 Noroeste 0 -- -- 93
2019-06-04 05:00:00 13.6 8 Noroeste 10 Noroeste 0 -- -- 93
2019-06-04 04:00:00 14.1 7 Noroeste 10 Noroeste 0 -- -- 91
2019-06-04 03:00:00 14.3 7 Noroeste 9 Norte 0 -- -- 89
2019-06-04 02:00:00 14.4 8 Noroeste 10 Noroeste 0 -- -- 86
2019-06-04 01:00:00 14.7 6 Noroeste 9 Noroeste 0 -- -- 83
2019-06-04 00:00:00 15 6 Noroeste 9 Noroeste 0 -- -- 80
2019-06-03 23:00:00 15.9 0 Calma -- -- 0 -- -- 74
2019-06-03 22:00:00 17.9 0 Calma 3 Sur 0 -- -- 70
2019-06-03 21:00:00 20.4 3 Sur 13 Sur 0 -- -- 62
2019-06-03 20:00:00 22.2 6 Sudeste 15 Sudeste 0 -- -- 61
2019-06-03 19:00:00 23.2 9 Sur 17 Sudeste 0 -- -- 58
2019-06-03 18:00:00 23.5 9 Sudeste 21 Sur 0 -- -- 59
2019-06-03 17:00:00 23.4 11 Sudeste 22 Sudeste 0 -- -- 57
2019-06-03 16:00:00 22.6 13 Sudeste 28 Sudeste 0 -- -- 61
2019-06-03 15:00:00 23.2 13 Sudeste 22 Sudeste 0 -- -- 54
2019-06-03 14:00:00 23.5 12 Sudeste 22 Sudeste 0 -- -- 58
2019-06-03 13:00:00 23 12 Sudeste 20 Sudeste 0 -- -- 64
2019-06-03 12:00:00 23 10 Sudeste 19 Sudeste 0 -- -- 62
2019-06-03 11:00:00 23.2 11 Sudeste 18 Sudeste 0 -- -- 53
2019-06-03 10:00:00 22.7 9 Sudeste 14 Sudeste 0 -- -- 57
2019-06-03 09:00:00 23 6 Sudeste 12 Sudeste 0 -- -- 51
2019-06-03 08:00:00 21.2 2 Noroeste 10 Noroeste 0 -- -- 49
2019-06-03 07:00:00 13.9 8 Noroeste 14 Noroeste 0 -- -- 67
2019-06-03 06:00:00 12.5 10 Noroeste 13 Noroeste 0 -- -- 71
2019-06-03 05:00:00 12.7 8 Noroeste 12 Noroeste 0 -- -- 74
2019-06-03 04:00:00 13.1 8 Noroeste 10 Noroeste 0 -- -- 77
2019-06-03 03:00:00 13 8 Noroeste 10 Noroeste 0 -- -- 82
2019-06-03 02:00:00 13.7 9 Noroeste 11 Noroeste 0 -- -- 85
2019-06-03 01:00:00 14.1 8 Noroeste 9 Noroeste 0 -- -- 85
2019-06-03 00:00:00 15 6 Noroeste 8 Noroeste 0 -- -- 84
2019-06-02 23:00:00 15.9 5 Noroeste 6 Noroeste 0 -- -- 79
2019-06-02 22:00:00 18.1 0 Calma 5 Sur 0 -- -- 75
2019-06-02 21:00:00 19.9 3 Sur 15 Sur 0 -- -- 70
2019-06-02 20:00:00 21.3 7 Sur 17 Sudeste 0 -- -- 65
2019-06-02 19:00:00 22 12 Sudeste 20 Sudeste 0 -- -- 61
2019-06-02 18:00:00 22.7 11 Sudeste 21 Sudeste 0 -- -- 53
2019-06-02 17:00:00 22.3 14 Sudeste 23 Sudeste 0 -- -- 62
2019-06-02 16:00:00 22.4 14 Sudeste 22 Sudeste 0 -- -- 59
2019-06-02 15:00:00 23 13 Sudeste 21 Sudeste 0 -- -- 54
2019-06-02 14:00:00 22.5 13 Sudeste 23 Sudeste 0 -- -- 66
2019-06-02 13:00:00 22.2 11 Sudeste 20 Sudeste 0 -- -- 66
2019-06-02 12:00:00 22.2 12 Sudeste 19 Sudeste 0 -- -- 62
2019-06-02 11:00:00 22.1 9 Sudeste 17 Sudeste 0 -- -- 59
2019-06-02 10:00:00 21.5 8 Sudeste 17 Sudeste 0 -- -- 71
2019-06-02 09:00:00 20.9 8 Sur 11 Sur 0 -- -- 77
2019-06-02 08:00:00 20 2 Noroeste 12 Noroeste 0 -- -- 68
2019-06-02 07:00:00 13.9 8 Noroeste 11 Noroeste 0 -- -- 87
2019-06-02 06:00:00 12.8 9 Noroeste 14 Noroeste 0 -- -- 90
2019-06-02 05:00:00 12.6 9 Noroeste 14 Noroeste 0 -- -- 91
2019-06-02 04:00:00 13.3 8 Noroeste 12 Noroeste 0 -- -- 92
2019-06-02 03:00:00 14.1 6 Noroeste 12 Noroeste 0 -- -- 92
2019-06-02 02:00:00 14.3 8 Noroeste 11 Noroeste 0 -- -- 91
2019-06-02 01:00:00 14.8 6 Noroeste 10 Noroeste 0 -- -- 90
2019-06-02 00:00:00 15.4 6 Noroeste 10 Noroeste 0 -- -- 88
2019-06-01 23:00:00 16.1 6 Noroeste 8 Noroeste 0 -- -- 87
2019-06-01 22:00:00 17.5 0 Calma -- -- 0 -- -- 84
2019-06-01 21:00:00 19.7 0 Calma 13 Sudeste 0 -- -- 77
2019-06-01 20:00:00 20.9 9 Sudeste 15 Sudeste 0 -- -- 73
2019-06-01 19:00:00 21.7 10 Sudeste 17 Sudeste 0 -- -- 71
2019-06-01 18:00:00 21.7 11 Sudeste 19 Sudeste 0 -- -- 71
2019-06-01 17:00:00 21.6 12 Sudeste 19 Sudeste 0 -- -- 72
2019-06-01 16:00:00 21.7 13 Sudeste 22 Sudeste 0 -- -- 72
2019-06-01 15:00:00 21.5 13 Sudeste 22 Sudeste 0 -- -- 75
2019-06-01 14:00:00 21.8 13 Sudeste 22 Este 0 -- -- 70
2019-06-01 13:00:00 21.6 13 Sudeste 22 Sudeste 0 -- -- 60
2019-06-01 12:00:00 21.1 14 Sudeste 21 Sudeste 0 -- -- 67
2019-06-01 11:00:00 21 11 Sudeste 18 Sudeste 0 -- -- 66
2019-06-01 10:00:00 22.2 9 Sudeste 14 Sudeste 0 -- -- 50
2019-06-01 09:00:00 23.4 2 Este 7 Noroeste 0 -- -- 48
2019-06-01 08:00:00 21.2 5 Noroeste 12 Noroeste 0 -- -- 57
2019-06-01 07:00:00 13.6 9 Noroeste 14 Noroeste 0 -- -- 78
2019-06-01 06:00:00 12 9 Noroeste 13 Noroeste 0 -- -- 82
2019-06-01 05:00:00 12.6 8 Noroeste 13 Noroeste 0 -- -- 81
2019-06-01 04:00:00 13.1 8 Noroeste 13 Noroeste 0 -- -- 79
2019-06-01 03:00:00 13.8 9 Noroeste 13 Noroeste 0 -- -- 78
2019-06-01 02:00:00 14.5 8 Noroeste 12 Noroeste 0 -- -- 79
2019-06-01 01:00:00 14.5 8 Noroeste 13 Noroeste 0 -- -- 79
2019-06-01 00:00:00 14.9 9 Noroeste 13 Noroeste 0 -- -- 76
2019-05-31 23:00:00 15.3 6 Noroeste 8 Oeste 0 -- -- 74
2019-05-31 22:00:00 17.3 3 Norte 10 Sudoeste 0 -- -- 72
2019-05-31 21:00:00 19.5 4 Sur 12 Sudoeste 0 -- -- 72
2019-05-31 20:00:00 21 5 Sur 16 Sur 0 -- -- 65
2019-05-31 19:00:00 23 7 Oeste 23 Nordeste 0 -- -- 58
2019-05-31 18:00:00 24.2 16 Nordeste 27 Nordeste 0 -- -- 45
2019-05-31 17:00:00 24.6 14 Norte 32 Nordeste 0 -- -- 47
2019-05-31 16:00:00 25 22 Nordeste 32 Nordeste 0 -- -- 42
2019-05-31 15:00:00 25.2 20 Nordeste 29 Nordeste 0 -- -- 41
2019-05-31 14:00:00 25.4 21 Nordeste 29 Nordeste 0 -- -- 37
2019-05-31 13:00:00 25 18 Nordeste 29 Nordeste 0 -- -- 38
2019-05-31 12:00:00 24.7 12 Nordeste 21 Nordeste 0 -- -- 40
2019-05-31 11:00:00 24 6 Este 17 Este 0 -- -- 47
2019-05-31 10:00:00 22.1 9 Sudeste 16 Norte 0 -- -- 49
2019-05-31 09:00:00 21.8 10 Norte 15 Norte 0 -- -- 46
2019-05-31 08:00:00 20.1 4 Noroeste 9 Noroeste 0 -- -- 65
2019-05-31 07:00:00 13.1 5 Noroeste 12 Norte 0 -- -- 85
2019-05-31 06:00:00 11.8 5 Noroeste 9 Noroeste 0 -- -- 88
2019-05-31 05:00:00 12 7 Noroeste 9 Noroeste 0 -- -- 89
2019-05-31 04:00:00 12.4 3 Noroeste 9 Noroeste 0 -- -- 89
2019-05-31 03:00:00 12.9 5 Noroeste 9 Noroeste 0 -- -- 88
2019-05-31 02:00:00 13.3 7 Noroeste 13 Noroeste 0 -- -- 88
2019-05-31 01:00:00 13.7 8 Noroeste 13 Noroeste 0 -- -- 88
2019-05-31 00:00:00 14.6 6 Noroeste 10 Noroeste 0 -- -- 86
2019-05-30 23:00:00 15.5 6 Noroeste 9 Oeste 0 -- -- 84
2019-05-30 22:00:00 16.6 2 Noroeste 8 Sudeste 0 -- -- 75
2019-05-30 21:00:00 18.4 6 Sudeste 13 Este 0 -- -- 71
2019-05-30 20:00:00 19.5 8 Sudeste 17 Sur 0 -- -- 67
2019-05-30 19:00:00 20.4 10 Sur 21 Sur 0 -- -- 64
2019-05-30 18:00:00 21 12 Sudeste 26 Sudoeste 0 -- -- 61
2019-05-30 17:00:00 21.6 14 Sur 29 Sur 0 -- -- 57
2019-05-30 16:00:00 22 14 Sur 33 Oeste 0 -- -- 57
2019-05-30 15:00:00 24.4 9 Nordeste 29 Norte 0 -- -- 42
2019-05-30 14:00:00 23 20 Norte 36 Norte 0 -- -- 50
2019-05-30 13:00:00 22.8 21 Norte 32 Norte 0 -- -- 44
2019-05-30 12:00:00 23.4 16 Norte -- -- -- -- -- 45
2019-05-30 11:00:00 -- 13 Norte 30 Norte 0 -- -- --
2019-05-30 10:00:00 22.7 9 Noroeste 21 Oeste 0 -- -- 43
2019-05-30 09:00:00 21.7 5 Oeste 13 Oeste 0 -- -- 55
2019-05-30 08:00:00 19 5 Noroeste 14 Noroeste 0 -- -- 66
2019-05-30 07:00:00 15.2 4 Noroeste 8 Noroeste 0 -- -- 81
2019-05-30 06:00:00 12.5 6 Noroeste 10 Norte 0 -- -- 89
2019-05-30 05:00:00 12.1 6 Norte 10 Norte 0 -- -- 86
2019-05-30 04:00:00 12.3 3 Norte 9 Norte 0 -- -- 85
2019-05-30 03:00:00 13.1 4 Norte 9 Norte 0 -- -- 84
2019-05-30 02:00:00 12.7 5 Noroeste 11 Oeste 0 -- -- 85
2019-05-30 01:00:00 12.7 5 Noroeste 10 Oeste 0 -- -- 84
2019-05-30 00:00:00 13.9 6 Noroeste 9 Noroeste 0 -- -- 78
2019-05-29 23:00:00 15.7 4 Noroeste 8 Noroeste 0 -- -- 73
2019-05-29 22:00:00 16.6 0 Calma 6 Este 0 -- -- 70
2019-05-29 21:00:00 17.9 2 Este 6 Sudeste 0 -- -- 64
2019-05-29 20:00:00 18.3 4 Sudeste 10 Sudeste 0 -- -- 62
2019-05-29 19:00:00 18.6 5 Sudeste 11 Sudeste 0 -- -- 61
2019-05-29 18:00:00 19.1 7 Sudeste 14 Sudeste 0 -- -- 58
2019-05-29 17:00:00 19.3 6 Nordeste 18 Este 0 -- -- 55
2019-05-29 16:00:00 19.7 10 Sudeste 22 Este 0 -- -- 54
2019-05-29 15:00:00 20.9 13 Sudeste 25 Sudeste 0 -- -- 54
2019-05-29 14:00:00 21.3 13 Este 37 Este 0 -- -- 45
2019-05-29 13:00:00 21.4 18 Nordeste 31 Nordeste 0 -- -- 46
2019-05-29 12:00:00 21.3 14 Este 29 Este 0 -- -- 45
2019-05-29 11:00:00 21 12 Nordeste 27 Este 0 -- -- 50
2019-05-29 10:00:00 17.5 16 Nordeste 27 Este 0 -- -- 66
2019-05-29 09:00:00 17 8 Norte 16 Norte 0 -- -- 76
2019-05-29 08:00:00 15.3 7 Norte 17 Nordeste 0 -- -- 84
2019-05-29 07:00:00 14.5 6 Noroeste 12 Noroeste 0 -- -- 88
2019-05-29 06:00:00 14.3 5 Noroeste 8 Norte 0 -- -- 84
2019-05-29 05:00:00 15.8 3 Norte 19 Nordeste 0 -- -- 79
2019-05-29 04:00:00 16.3 9 Nordeste 18 Nordeste 0 -- -- 78
2019-05-29 03:00:00 15.7 5 Noroeste 8 Oeste 0 -- -- 81
2019-05-29 02:00:00 15.8 4 Noroeste 6 Noroeste 0 -- -- 80
2019-05-29 01:00:00 17.1 2 Este 14 Este 0 -- -- 73
2019-05-29 00:00:00 17.1 0 Calma 10 Sudeste 0 -- -- 74
2019-05-28 23:00:00 17.3 0 Calma 8 Este 0 -- -- 74
2019-05-28 22:00:00 17.4 4 Este 17 Este 0 -- -- 72
2019-05-28 21:00:00 17.6 9 Este 25 Nordeste 0 -- -- 72
2019-05-28 20:00:00 17.6 14 Nordeste 34 Este 0 -- -- 70
2019-05-28 19:00:00 17.7 22 Nordeste 36 Nordeste 0 -- -- 75
2019-05-28 18:00:00 20.1 17 Nordeste 30 Nordeste 0 -- -- 72
2019-05-28 17:00:00 20.2 14 Nordeste 23 Nordeste 0 -- -- 73
2019-05-28 16:00:00 20.9 13 Nordeste 21 Nordeste 0 -- -- 71
2019-05-28 15:00:00 19 11 Nordeste 19 Nordeste 0.8 -- -- 82
2019-05-28 14:00:00 19.6 9 Sudeste 19 Sudeste 0 -- -- 86
2019-05-28 13:00:00 21 11 Sudeste 23 Sur 0 -- -- 78
2019-05-28 12:00:00 22.8 11 Sur 21 Sudeste 0 -- -- 71
2019-05-28 11:00:00 24.1 4 Noroeste 21 Oeste 0 -- -- 57
2019-05-28 10:00:00 22.9 10 Oeste 22 Oeste 0 -- -- 66
2019-05-28 09:00:00 20 10 Oeste 18 Noroeste 0 -- -- 86
2019-05-28 08:00:00 17.8 8 Oeste 15 Oeste 0 -- -- 93
2019-05-28 07:00:00 14.7 0 Calma 6 Norte 0 -- -- 96
2019-05-28 06:00:00 13.6 4 Noroeste 6 Noroeste 0 -- -- 96
2019-05-28 05:00:00 14.3 4 Noroeste 8 Noroeste 0 -- -- 95
2019-05-28 04:00:00 15.2 2 Noroeste 8 Noroeste 0 -- -- 93
2019-05-28 03:00:00 16.2 4 Oeste 14 Sudoeste 0 -- -- 92
2019-05-28 02:00:00 17.5 6 Sudoeste 12 Sudoeste 0 -- -- 94
2019-05-28 01:00:00 17.9 9 Sudoeste 15 Sudoeste 0 -- -- 93
2019-05-28 00:00:00 17.6 4 Sur 9 Sur 0 -- -- 92
2019-05-27 23:00:00 17.4 5 Sur 9 Sur 0 -- -- 90
2019-05-27 22:00:00 18.3 5 Sudoeste 13 Sudoeste 0 -- -- 85
2019-05-27 21:00:00 19.3 8 Sudoeste 22 Sur 0 -- -- 78
2019-05-27 20:00:00 20.1 10 Sur 29 Sur 0 -- -- 70
2019-05-27 19:00:00 21.5 16 Sur 30 Sur 0 -- -- 55
2019-05-27 18:00:00 22 16 Sur 27 Sur 0 -- -- 52
2019-05-27 17:00:00 22.3 14 Sur 23 Sur 0 -- -- 53
2019-05-27 16:00:00 22.2 11 Sur 22 Sudeste 0 -- -- 49
2019-05-27 15:00:00 21.8 12 Sur 28 Sudeste 0 -- -- 51
2019-05-27 14:00:00 25.3 12 Este 22 Nordeste 0 -- -- 36
2019-05-27 13:00:00 24.2 14 Nordeste 29 Nordeste 0 -- -- 38
2019-05-27 12:00:00 25.1 9 Norte 24 Norte 0 -- -- 39
2019-05-27 11:00:00 24.5 11 Norte 23 Norte 0 -- -- 42
2019-05-27 10:00:00 23.4 13 Norte 25 Norte 0 -- -- 43
2019-05-27 09:00:00 22.7 13 Noroeste 25 Noroeste 0 -- -- 44
2019-05-27 08:00:00 20.8 10 Noroeste 23 Norte 0 -- -- 47
2019-05-27 07:00:00 17.1 11 Noroeste 21 Noroeste 0 -- -- 56
2019-05-27 06:00:00 16.9 9 Noroeste 21 Norte 0 -- -- 56
2019-05-27 05:00:00 16.8 10 Noroeste 25 Noroeste 0 -- -- 57
2019-05-27 04:00:00 17.2 13 Noroeste 22 Noroeste 0 -- -- 57
2019-05-27 03:00:00 15.7 2 Oeste 18 Noroeste 0 -- -- 63
2019-05-27 02:00:00 16.5 9 Noroeste 20 Noroeste 0 -- -- 61
2019-05-27 01:00:00 16 3 Norte 11 Noroeste 0 -- -- 65
2019-05-27 00:00:00 16.5 2 Noroeste 8 Noroeste 0 -- -- 65
2019-05-26 23:00:00 15.5 7 Noroeste 10 Oeste 0 -- -- 69
2019-05-26 22:00:00 16.7 6 Noroeste 8 Noroeste 0 -- -- 65
2019-05-26 21:00:00 19 5 Noroeste 29 Norte 0 -- -- 56
2019-05-26 20:00:00 20.4 14 Norte 28 Norte 0 -- -- 51
2019-05-26 19:00:00 21.4 14 Noroeste 38 Norte 0 -- -- 52
2019-05-26 18:00:00 22.1 19 Norte 39 Norte 0 -- -- 49
2019-05-26 17:00:00 22 20 Norte 42 Norte 0 -- -- 46
2019-05-26 16:00:00 23 26 Norte 42 Norte 0 -- -- 43
2019-05-26 15:00:00 21.2 24 Norte 42 Norte 0 -- -- 49
2019-05-26 14:00:00 22.2 24 Norte 50 Nordeste 0 -- -- 49
2019-05-26 13:00:00 22 26 Nordeste 49 Nordeste 0 -- -- 50
2019-05-26 12:00:00 22.8 20 Norte 38 Nordeste 0 -- -- 46
2019-05-26 11:00:00 22.1 19 Nordeste 38 Nordeste 0 -- -- 51
2019-05-26 10:00:00 21.4 21 Norte 38 Nordeste 0 -- -- 56
2019-05-26 09:00:00 19.2 14 Norte 25 Norte 0 -- -- 69
2019-05-26 08:00:00 18.2 13 Noroeste 22 Norte 0 -- -- 73
2019-05-26 07:00:00 16.2 10 Norte 19 Norte 0 -- -- 77
2019-05-26 06:00:00 15.6 7 Norte 17 Noroeste 0 -- -- 81
2019-05-26 05:00:00 15.8 6 Noroeste 14 Noroeste 0 -- -- 79
2019-05-26 04:00:00 16.7 9 Noroeste 13 Noroeste 0 -- -- 71
2019-05-26 03:00:00 17.2 9 Norte 17 Norte 0 -- -- 73
2019-05-26 02:00:00 15.7 4 Norte 9 Noroeste 0 -- -- 88
2019-05-26 01:00:00 16.2 6 Noroeste 14 Norte 0 -- -- 85
2019-05-26 00:00:00 16.7 7 Norte 25 Norte 0 -- -- 83
2019-05-25 23:00:00 17.2 11 Norte 24 Nordeste 0 -- -- 82
2019-05-25 22:00:00 17.3 14 Norte 35 Norte 0 -- -- 81
2019-05-25 21:00:00 17.4 15 Norte 32 Norte 0 -- -- 79
2019-05-25 20:00:00 17.5 18 Norte 32 Norte 0 -- -- 78
2019-05-25 19:00:00 18.4 16 Norte 32 Nordeste 0 -- -- 74
2019-05-25 18:00:00 18.6 17 Nordeste 33 Nordeste 0 -- -- 73
2019-05-25 17:00:00 18.7 22 Nordeste 36 Nordeste 0 -- -- 74
2019-05-25 16:00:00 17.9 14 Norte 30 Nordeste 0 -- -- 82
2019-05-25 15:00:00 17.1 14 Norte 28 Nordeste 0 -- -- 89
2019-05-25 14:00:00 18.3 17 Nordeste 29 Nordeste 0 -- -- 78
2019-05-25 13:00:00 18.5 14 Nordeste 25 Nordeste 0 -- -- 79
2019-05-25 12:00:00 17 8 Nordeste 24 Nordeste 0 -- -- 87
2019-05-25 11:00:00 16.9 10 Nordeste 24 Nordeste 0 -- -- 84
2019-05-25 10:00:00 16.7 9 Nordeste 19 Nordeste 0 -- -- 86
2019-05-25 09:00:00 16.3 9 Nordeste 16 Nordeste 0 -- -- 86
2019-05-25 08:00:00 15.8 3 Norte 9 Norte 0 -- -- 87
2019-05-25 07:00:00 15.6 4 Noroeste 7 Noroeste 0 -- -- 88
2019-05-25 06:00:00 15.5 3 Norte 6 Noroeste 0 -- -- 89
2019-05-25 05:00:00 15.6 2 Norte 7 Nordeste 0 -- -- 90
2019-05-25 04:00:00 15.8 2 Este 8 Nordeste 0 -- -- 90
2019-05-25 03:00:00 15.9 0 Calma 8 Norte 0 -- -- 93
2019-05-25 02:00:00 15.3 4 Noroeste 7 Noroeste 0 -- -- 93
2019-05-25 01:00:00 15.2 5 Noroeste 10 Oeste 0 -- -- 92
2019-05-25 00:00:00 15 5 Noroeste 9 Noroeste 0 -- -- 91
2019-05-24 23:00:00 15.1 5 Norte 9 Noroeste 0 -- -- 89
2019-05-24 22:00:00 15.2 4 Noroeste 8 Noroeste 0 -- -- 86
2019-05-24 21:00:00 15.8 4 Noroeste 8 Nordeste 0 -- -- 82
2019-05-24 20:00:00 16.4 4 Norte 9 Nordeste 0 -- -- 82
2019-05-24 19:00:00 16.8 4 Norte 12 Norte 0.2 -- -- 84
2019-05-24 18:00:00 16.9 6 Norte 17 Norte 0.2 -- -- 80
2019-05-24 17:00:00 17.7 10 Norte 19 Norte 0.2 -- -- 73
2019-05-24 16:00:00 17.8 12 Norte 19 Norte 0.2 -- -- 78
2019-05-24 15:00:00 19.1 2 Sudoeste 9 Sur 0.4 -- -- 78
2019-05-24 14:00:00 20.3 5 Sur 13 Norte 0 -- -- 63
2019-05-24 13:00:00 21.6 8 Norte 15 Norte 0 -- -- 47
2019-05-24 12:00:00 20.8 4 Sudeste 8 Sudeste 0 -- -- 68
2019-05-24 11:00:00 20.4 3 Sur 8 Sudeste 0 -- -- 67
2019-05-24 10:00:00 21.5 4 Sudeste 8 Este 0 -- -- 50
2019-05-24 09:00:00 22.1 0 Calma 4 Noroeste 0 -- -- 48
2019-05-24 08:00:00 18.6 3 Noroeste 10 Noroeste 0 -- -- 57
2019-05-24 07:00:00 14.3 5 Noroeste 10 Noroeste 0 -- -- 69
2019-05-24 06:00:00 12.5 7 Noroeste 10 Noroeste 0 -- -- 75
2019-05-24 05:00:00 12.7 5 Noroeste 10 Noroeste 0 -- -- 73
2019-05-24 04:00:00 13.1 9 Noroeste 11 Noroeste 0 -- -- 70
2019-05-24 03:00:00 13 8 Noroeste 10 Noroeste 0 -- -- 69
2019-05-24 02:00:00 13.6 5 Noroeste 9 Noroeste 0 -- -- 69
2019-05-24 01:00:00 14.5 5 Noroeste 9 Noroeste 0 -- -- 70
2019-05-24 00:00:00 15.8 3 Norte 6 Este 0 -- -- 65
2019-05-23 23:00:00 17.2 2 Este 18 Sudoeste 0 -- -- 60
2019-05-23 22:00:00 18.4 11 Sudoeste 16 Sudoeste 0 -- -- 60
2019-05-23 21:00:00 19.5 10 Sudoeste 20 Sudoeste 0 -- -- 59
2019-05-23 20:00:00 20.7 14 Sudoeste 27 Sudoeste 0 -- -- 48
2019-05-23 19:00:00 21.6 17 Sudoeste 34 Sudoeste 0 -- -- 39
2019-05-23 18:00:00 23.1 22 Sudoeste 36 Sudoeste 0 -- -- 37
2019-05-23 17:00:00 24.1 21 Sudoeste 36 Sudoeste 0 -- -- 34
2019-05-23 16:00:00 24.1 24 Sudoeste 35 Sudoeste 0 -- -- 31
2019-05-23 15:00:00 24.6 18 Sudoeste 28 Sur 0 -- -- 35
2019-05-23 14:00:00 23.8 18 Sur 28 Sur 0 -- -- 35
2019-05-23 13:00:00 23.1 18 Sur 26 Sur 0 -- -- 40
2019-05-23 12:00:00 22.6 18 Sur 27 Sur 0 -- -- 45
2019-05-23 11:00:00 23.5 10 Sur 18 Sur 0 -- -- 44
2019-05-23 10:00:00 24.5 5 Oeste 18 Oeste 0 -- -- 35
2019-05-23 09:00:00 22 8 Sudoeste 15 Noroeste 0 -- -- 37
2019-05-23 08:00:00 18.8 8 Oeste 14 Noroeste 0 -- -- 56
2019-05-23 07:00:00 10.2 6 Noroeste 9 Noroeste 0 -- -- 90
2019-05-23 06:00:00 10.7 2 Nordeste 9 Noroeste 0 -- -- 93
2019-05-23 05:00:00 12 4 Norte 10 Noroeste 0 -- -- 95
2019-05-23 04:00:00 12.6 6 Noroeste 11 Noroeste 0 -- -- 95
2019-05-23 03:00:00 13.1 5 Norte 8 Noroeste 0 -- -- 93
2019-05-23 02:00:00 13.4 2 Norte 4 Noroeste 0 -- -- 91
2019-05-23 01:00:00 13.8 0 Calma 12 Oeste 0 -- -- 89
2019-05-23 00:00:00 14.7 5 Oeste 15 Oeste 0 -- -- 86
2019-05-22 23:00:00 17.1 9 Oeste 15 Sudoeste 0 -- -- 83
2019-05-22 22:00:00 17.1 3 Sudoeste 13 Sur 0 -- -- 83
2019-05-22 21:00:00 18.2 8 Sur 14 Sur 0 -- -- 78
2019-05-22 20:00:00 19.3 8 Sur 17 Sudeste 0 -- -- 73
2019-05-22 19:00:00 20.4 9 Sudeste 19 Sudeste 0 -- -- 66
2019-05-22 18:00:00 20.5 10 Sudeste 18 Sur 0 -- -- 64
2019-05-22 17:00:00 20.4 11 Sur 18 Sur 0 -- -- 60
2019-05-22 16:00:00 21.2 10 Sur 21 Sudeste 0 -- -- 48
2019-05-22 15:00:00 21.7 13 Sudeste 22 Sur 0 -- -- 40
2019-05-22 14:00:00 22.6 14 Sudeste 22 Sudeste 0 -- -- 35
2019-05-22 13:00:00 23.3 14 Sudeste 22 Sudeste 0 -- -- 38
2019-05-22 12:00:00 23.6 10 Sudeste 17 Sudeste 0 -- -- 36
2019-05-22 11:00:00 21.1 9 Sur 13 Sudoeste 0 -- -- 53
2019-05-22 10:00:00 20.8 7 Sudeste 14 Sudeste 0 -- -- 53
2019-05-22 09:00:00 22.5 0 Calma 6 Oeste 0 -- -- 46
2019-05-22 08:00:00 18.8 5 Noroeste 11 Noroeste 0 -- -- 74
2019-05-22 07:00:00 11.9 9 Noroeste 11 Noroeste 0 -- -- 93
2019-05-22 06:00:00 11.4 8 Noroeste 10 Noroeste 0 -- -- 93
2019-05-22 05:00:00 11.9 8 Noroeste 12 Noroeste 0 -- -- 93
2019-05-22 04:00:00 12 7 Noroeste 9 Noroeste 0 -- -- 93
2019-05-22 03:00:00 12.1 6 Noroeste 9 Noroeste 0 -- -- 93
2019-05-22 02:00:00 12.9 8 Noroeste 11 Noroeste 0 -- -- 92
2019-05-22 01:00:00 13 8 Noroeste 10 Noroeste 0 -- -- 90
2019-05-22 00:00:00 14.2 6 Noroeste 8 Noroeste 0 -- -- 88
2019-05-21 23:00:00 15.3 3 Norte 6 Noroeste 0 -- -- 84
2019-05-21 22:00:00 16.9 0 Calma 8 Sudoeste 0 -- -- 79
2019-05-21 21:00:00 17.5 4 Sudoeste 12 Sudeste 0 -- -- 77
2019-05-21 20:00:00 18.2 8 Sudeste 14 Sudeste 0 -- -- 76
2019-05-21 19:00:00 18.6 8 Sudeste 15 Sudeste 0 -- -- 72
2019-05-21 18:00:00 18.7 7 Sudeste 15 Sudeste 0 -- -- 71
2019-05-21 17:00:00 19.3 8 Sudeste 17 Sur 0 -- -- 65
2019-05-21 16:00:00 20.2 8 Sur 23 Sur 0 -- -- 57
2019-05-21 15:00:00 19.9 13 Sur 21 Sudeste 0 -- -- 62
2019-05-21 14:00:00 21.3 10 Sudeste 21 Sudeste 0 -- -- 51
2019-05-21 13:00:00 21 9 Sur 20 Sudeste 0 -- -- 47
2019-05-21 12:00:00 19.9 12 Sudeste 18 Sudeste 0 -- -- 48
2019-05-21 11:00:00 20.5 8 Sudeste 16 Sur 0 -- -- 41
2019-05-21 10:00:00 20.8 5 Sudeste 10 Sur 0 -- -- 51
2019-05-21 09:00:00 20.6 0 Calma 7 Nordeste 0 -- -- 50
2019-05-21 08:00:00 14.5 5 Noroeste 11 Noroeste 0 -- -- 83
2019-05-21 07:00:00 9.9 7 Noroeste 13 Noroeste 0 -- -- 91
2019-05-21 06:00:00 9.6 7 Noroeste 13 Noroeste 0 -- -- 89
2019-05-21 05:00:00 9.9 9 Noroeste 14 Noroeste 0 -- -- 88
2019-05-21 04:00:00 9.6 8 Noroeste 13 Noroeste 0 -- -- 86
2019-05-21 03:00:00 9.8 7 Noroeste 13 Noroeste 0 -- -- 83
2019-05-21 02:00:00 10.5 9 Noroeste 13 Noroeste 0 -- -- 81
2019-05-21 01:00:00 11.3 10 Noroeste 15 Noroeste 0 -- -- 77
2019-05-21 00:00:00 11.8 8 Noroeste 12 Noroeste 0 -- -- 75
2019-05-20 23:00:00 12.6 7 Noroeste 10 Noroeste 0 -- -- 72
2019-05-20 22:00:00 13.3 6 Noroeste 8 Oeste 0 -- -- 71
2019-05-20 21:00:00 16.5 2 Este 10 Este 0 -- -- 59
2019-05-20 20:00:00 18.4 6 Sudeste 17 Sudeste 0 -- -- 51
2019-05-20 19:00:00 19.3 10 Este 24 Sudeste 0 -- -- 56
2019-05-20 18:00:00 19.5 15 Sudeste 25 Sudeste 0 -- -- 60
2019-05-20 17:00:00 19.8 14 Sudeste 25 Sudeste 0 -- -- 60
2019-05-20 16:00:00 19.4 13 Sudeste 26 Sudeste 0 -- -- 61
2019-05-20 15:00:00 19.8 11 Sudeste 23 Sudeste 0 -- -- 60
2019-05-20 14:00:00 19.5 13 Sudeste 22 Sudeste 0 -- -- 59
2019-05-20 13:00:00 19.9 15 Sudeste 24 Sudeste 0 -- -- 56
2019-05-20 12:00:00 19.5 15 Sudeste 25 Sudeste 0 -- -- 61
2019-05-20 11:00:00 19.1 13 Sudeste 19 Sudeste 0 -- -- 63
2019-05-20 10:00:00 19.4 10 Sudeste 18 Sudeste 0 -- -- 63
2019-05-20 09:00:00 20.1 2 Noroeste 11 Norte 0 -- -- 63
2019-05-20 08:00:00 17.3 4 Noroeste 10 Noroeste 0 -- -- 75
2019-05-20 07:00:00 9.7 6 Norte 11 Noroeste 0 -- -- 91
2019-05-20 06:00:00 9.7 5 Norte 9 Noroeste 0 -- -- 90
2019-05-20 05:00:00 9.6 7 Noroeste 9 Noroeste 0 -- -- 89
2019-05-20 04:00:00 10.6 5 Noroeste 8 Noroeste 0 -- -- 88
2019-05-20 03:00:00 12.2 5 Norte 8 Noroeste 0 -- -- 85
2019-05-20 02:00:00 11.9 6 Noroeste 9 Norte 0 -- -- 87
2019-05-20 01:00:00 12 7 Norte 10 Noroeste 0 -- -- 86
2019-05-20 00:00:00 13.1 4 Norte 10 Oeste 0 -- -- 82
2019-05-19 23:00:00 12.4 8 Noroeste 11 Noroeste 0 -- -- 82
2019-05-19 22:00:00 13.5 4 Norte 15 Norte 0 -- -- 75
2019-05-19 21:00:00 15.4 8 Norte 26 Norte 0 -- -- 67
2019-05-19 20:00:00 17.4 13 Norte 30 Norte 0 -- -- 52
2019-05-19 19:00:00 19.1 17 Norte 33 Noroeste 0 -- -- 46
2019-05-19 18:00:00 17.2 7 Sudeste 15 Sudeste 0 -- -- 65
2019-05-19 17:00:00 17 6 Sudeste 13 Sudeste 0 -- -- 68
2019-05-19 16:00:00 16.9 8 Sudeste 24 Sudeste 0.2 -- -- 68
2019-05-19 15:00:00 17.2 8 Sur 18 Sudeste 0 -- -- 63
2019-05-19 14:00:00 19.5 5 Norte 19 Este 0 -- -- 49
2019-05-19 13:00:00 18.3 8 Sur 26 Noroeste 0 -- -- 55
2019-05-19 12:00:00 19.7 13 Noroeste 30 Norte 0 -- -- 46
2019-05-19 11:00:00 19.3 17 Norte 31 Norte 0 -- -- 47
2019-05-19 10:00:00 19.8 10 Norte 23 Noroeste 0 -- -- 49
2019-05-19 09:00:00 19.2 7 Noroeste 15 Noroeste 0 -- -- 52
2019-05-19 08:00:00 15.2 2 Norte 9 Noroeste 0 -- -- 80
2019-05-19 07:00:00 9.6 5 Noroeste 10 Noroeste 0 -- -- 92
2019-05-19 06:00:00 9.1 6 Norte 9 Noroeste 0 -- -- 91
2019-05-19 05:00:00 9.5 6 Noroeste 9 Noroeste 0 -- -- 91
2019-05-19 04:00:00 9.8 5 Noroeste 11 Noroeste 0 -- -- 87
2019-05-19 03:00:00 11 5 Norte 10 Noroeste 0 -- -- 82
2019-05-19 02:00:00 10.5 2 Noroeste 10 Noroeste 0 -- -- 86
2019-05-19 01:00:00 11.3 5 Norte 9 Norte 0 -- -- 85
2019-05-19 00:00:00 13.1 6 Noroeste 9 Noroeste 0 -- -- 81
2019-05-18 23:00:00 13.8 6 Noroeste 11 Noroeste 0 -- -- 80
2019-05-18 22:00:00 14.4 9 Noroeste 13 Noroeste 0 -- -- 74
2019-05-18 21:00:00 16.2 5 Norte 12 Nordeste 0 -- -- 68
2019-05-18 20:00:00 18 5 Nordeste 18 Nordeste 0 -- -- 63
2019-05-18 19:00:00 19.1 5 Nordeste 17 Nordeste 0 -- -- 59
2019-05-18 18:00:00 19 8 Sudeste 24 Sudeste 0 -- -- 59
2019-05-18 17:00:00 17.7 10 Sudeste 25 Sudeste 0 -- -- 68
2019-05-18 16:00:00 18.1 10 Este 22 Sudeste 1 -- -- 73
2019-05-18 15:00:00 17.4 13 Sudeste 23 Sudeste 0 -- -- 67
2019-05-18 14:00:00 17.8 10 Sur 23 Sudoeste 0 -- -- 66
2019-05-18 13:00:00 17.8 11 Sur 20 Sudeste 0 -- -- 64
2019-05-18 12:00:00 17.4 10 Sur 19 Sudeste 0 -- -- 61
2019-05-18 11:00:00 17.6 10 Sudeste 15 Sudeste 0 -- -- 61
2019-05-18 10:00:00 18.6 4 Sudeste 12 Este 0 -- -- 56
2019-05-18 09:00:00 17 4 Noroeste 7 Noroeste 0 -- -- 65
2019-05-18 08:00:00 15.1 0 Calma 5 Norte 0 -- -- 76
2019-05-18 07:00:00 13.7 5 Norte 8 Norte 0 -- -- 80
2019-05-18 06:00:00 14 6 Norte 9 Noroeste 0 -- -- 84
2019-05-18 05:00:00 13.3 0 Calma 0 Calma 0 -- -- 87
2019-05-18 04:00:00 13.3 0 Calma 2 Oeste 0 -- -- 86
2019-05-18 03:00:00 13.2 0 Calma 10 Norte 0 -- -- 83
2019-05-18 02:00:00 14.9 5 Norte 21 Norte 0 -- -- 78
2019-05-18 01:00:00 15 9 Norte 13 Norte 0 -- -- 77
2019-05-18 00:00:00 13.5 3 Sudoeste 13 Norte 0 -- -- 80
2019-05-17 23:00:00 14.1 8 Norte 16 Norte 0 -- -- 77
2019-05-17 22:00:00 14.7 5 Norte 18 Norte 0 -- -- 75
2019-05-17 21:00:00 15.4 11 Norte 27 Norte 0 -- -- 72
2019-05-17 20:00:00 16.2 12 Noroeste 34 Noroeste 0 -- -- 75
2019-05-17 19:00:00 16.2 18 Noroeste 42 Norte 0 -- -- 72
2019-05-17 18:00:00 17.1 20 Noroeste 49 Noroeste 0 -- -- 67
2019-05-17 17:00:00 20.2 27 Norte 58 Noroeste 0 -- -- 48
2019-05-17 16:00:00 20.4 33 Noroeste 68 Noroeste 0 -- -- 45
2019-05-17 15:00:00 20.7 29 Noroeste 52 Oeste 0 -- -- 44
2019-05-17 14:00:00 20.7 25 Noroeste 53 Noroeste 0 -- -- 50
2019-05-17 13:00:00 23.2 27 Noroeste 57 Noroeste 0 -- -- 42
2019-05-17 12:00:00 21.8 21 Oeste 35 Oeste 0 -- -- 54
2019-05-17 11:00:00 20.8 10 Oeste 23 Noroeste 0 -- -- 68
2019-05-17 10:00:00 18.1 10 Sudoeste 22 Sudoeste 0 -- -- 81
2019-05-17 09:00:00 17.4 13 Sur 21 Sur 0 -- -- 84
2019-05-17 08:00:00 16.5 8 Sur 19 Sur 0 -- -- 83
2019-05-17 07:00:00 16 10 Sur 23 Sur 0 -- -- 83
2019-05-17 06:00:00 15.8 8 Sur 21 Sur 0 -- -- 82
2019-05-17 05:00:00 15.7 6 Sur 18 Sur 0 -- -- 78
2019-05-17 04:00:00 15.4 7 Sur 20 Sudeste 0 -- -- 78
2019-05-17 03:00:00 15.7 9 Sur 22 Sudeste 0 -- -- 75
2019-05-17 02:00:00 15.5 9 Sur 25 Sur 0 -- -- 77
2019-05-17 01:00:00 15.7 11 Sur 26 Sur 0 -- -- 79
2019-05-17 00:00:00 15.6 9 Sur 22 Sur 0 -- -- 79